sensor_id;sensor_type;location;lat;lon;timestamp;P1;durP1;ratioP1;P2;durP2;ratioP2
45338;SDS011;31071;51.478;5.710;2023-06-22T00:00:54;9.18;;;6.38;;
45338;SDS011;31071;51.478;5.710;2023-06-22T00:03:20;9.48;;;7.50;;
45338;SDS011;31071;51.478;5.710;2023-06-22T00:05:47;9.15;;;7.55;;
45338;SDS011;31071;51.478;5.710;2023-06-22T00:08:13;10.77;;;7.95;;
45338;SDS011;31071;51.478;5.710;2023-06-22T00:10:39;9.75;;;7.28;;
45338;SDS011;31071;51.478;5.710;2023-06-22T00:13:06;12.93;;;7.78;;
45338;SDS011;31071;51.478;5.710;2023-06-22T00:15:33;16.40;;;9.25;;
45338;SDS011;31071;51.478;5.710;2023-06-22T00:17:59;9.38;;;7.07;;
45338;SDS011;31071;51.478;5.710;2023-06-22T00:20:25;10.98;;;7.47;;
45338;SDS011;31071;51.478;5.710;2023-06-22T00:22:55;11.98;;;7.60;;
45338;SDS011;31071;51.478;5.710;2023-06-22T00:25:22;8.77;;;7.20;;
45338;SDS011;31071;51.478;5.710;2023-06-22T00:27:48;7.85;;;6.78;;
45338;SDS011;31071;51.478;5.710;2023-06-22T00:30:14;13.65;;;7.38;;
45338;SDS011;31071;51.478;5.710;2023-06-22T00:32:41;8.20;;;6.65;;
45338;SDS011;31071;51.478;5.710;2023-06-22T00:35:07;11.45;;;7.55;;
45338;SDS011;31071;51.478;5.710;2023-06-22T00:37:34;10.98;;;7.53;;
45338;SDS011;31071;51.478;5.710;2023-06-22T00:40:00;9.73;;;8.00;;
45338;SDS011;31071;51.478;5.710;2023-06-22T00:42:26;8.18;;;6.57;;
45338;SDS011;31071;51.478;5.710;2023-06-22T00:44:52;7.32;;;6.32;;
45338;SDS011;31071;51.478;5.710;2023-06-22T00:47:17;8.95;;;7.03;;
45338;SDS011;31071;51.478;5.710;2023-06-22T00:49:44;11.85;;;7.38;;
45338;SDS011;31071;51.478;5.710;2023-06-22T00:52:11;10.52;;;7.60;;
45338;SDS011;31071;51.478;5.710;2023-06-22T00:54:40;9.88;;;7.22;;
45338;SDS011;31071;51.478;5.710;2023-06-22T00:57:13;13.88;;;8.40;;
45338;SDS011;31071;51.478;5.710;2023-06-22T00:59:42;10.20;;;8.18;;
45338;SDS011;31071;51.478;5.710;2023-06-22T01:02:08;12.38;;;8.88;;
45338;SDS011;31071;51.478;5.710;2023-06-22T01:04:34;11.25;;;9.02;;
45338;SDS011;31071;51.478;5.710;2023-06-22T01:07:09;11.55;;;8.90;;
45338;SDS011;31071;51.478;5.710;2023-06-22T01:12:30;14.20;;;11.00;;
45338;SDS011;31071;51.478;5.710;2023-06-22T01:15:10;12.18;;;9.43;;
45338;SDS011;31071;51.478;5.710;2023-06-22T01:17:40;11.70;;;9.23;;
45338;SDS011;31071;51.478;5.710;2023-06-22T01:20:08;11.95;;;9.50;;
45338;SDS011;31071;51.478;5.710;2023-06-22T01:22:43;12.10;;;9.18;;
45338;SDS011;31071;51.478;5.710;2023-06-22T01:25:21;12.50;;;9.18;;
45338;SDS011;31071;51.478;5.710;2023-06-22T01:28:05;12.38;;;8.45;;
45338;SDS011;31071;51.478;5.710;2023-06-22T01:30:50;10.95;;;9.32;;
45338;SDS011;31071;51.478;5.710;2023-06-22T01:33:28;14.75;;;10.20;;
45338;SDS011;31071;51.478;5.710;2023-06-22T01:35:56;12.85;;;10.80;;
45338;SDS011;31071;51.478;5.710;2023-06-22T01:38:22;14.27;;;11.52;;
45338;SDS011;31071;51.478;5.710;2023-06-22T01:40:48;16.08;;;11.20;;
45338;SDS011;31071;51.478;5.710;2023-06-22T01:43:15;13.57;;;10.70;;
45338;SDS011;31071;51.478;5.710;2023-06-22T01:45:41;15.73;;;12.07;;
45338;SDS011;31071;51.478;5.710;2023-06-22T01:48:07;17.38;;;12.23;;
45338;SDS011;31071;51.478;5.710;2023-06-22T01:50:33;15.95;;;12.57;;
45338;SDS011;31071;51.478;5.710;2023-06-22T01:52:59;17.20;;;12.43;;
45338;SDS011;31071;51.478;5.710;2023-06-22T01:55:25;17.15;;;11.95;;
45338;SDS011;31071;51.478;5.710;2023-06-22T01:57:50;14.05;;;11.80;;
45338;SDS011;31071;51.478;5.710;2023-06-22T02:00:18;16.75;;;12.48;;
45338;SDS011;31071;51.478;5.710;2023-06-22T02:02:56;16.13;;;12.23;;
45338;SDS011;31071;51.478;5.710;2023-06-22T02:05:26;14.85;;;12.43;;
45338;SDS011;31071;51.478;5.710;2023-06-22T02:08:17;17.00;;;12.38;;
45338;SDS011;31071;51.478;5.710;2023-06-22T02:10:46;14.65;;;10.60;;
45338;SDS011;31071;51.478;5.710;2023-06-22T02:13:13;16.15;;;10.98;;
45338;SDS011;31071;51.478;5.710;2023-06-22T02:15:39;13.85;;;10.60;;
45338;SDS011;31071;51.478;5.710;2023-06-22T02:18:06;13.80;;;10.38;;
45338;SDS011;31071;51.478;5.710;2023-06-22T02:20:32;13.75;;;12.20;;
45338;SDS011;31071;51.478;5.710;2023-06-22T02:23:00;15.73;;;12.20;;
45338;SDS011;31071;51.478;5.710;2023-06-22T02:25:26;14.95;;;12.93;;
45338;SDS011;31071;51.478;5.710;2023-06-22T02:27:52;17.15;;;13.15;;
45338;SDS011;31071;51.478;5.710;2023-06-22T02:30:17;16.35;;;12.77;;
45338;SDS011;31071;51.478;5.710;2023-06-22T02:32:43;15.00;;;13.15;;
45338;SDS011;31071;51.478;5.710;2023-06-22T02:35:09;16.27;;;13.82;;
45338;SDS011;31071;51.478;5.710;2023-06-22T02:37:35;18.83;;;14.25;;
45338;SDS011;31071;51.478;5.710;2023-06-22T02:40:06;19.48;;;12.98;;
45338;SDS011;31071;51.478;5.710;2023-06-22T02:42:33;17.17;;;13.25;;
45338;SDS011;31071;51.478;5.710;2023-06-22T02:44:59;16.63;;;13.23;;
45338;SDS011;31071;51.478;5.710;2023-06-22T02:47:25;14.32;;;12.05;;
45338;SDS011;31071;51.478;5.710;2023-06-22T02:49:51;17.63;;;12.98;;
45338;SDS011;31071;51.478;5.710;2023-06-22T02:52:16;17.88;;;13.60;;
45338;SDS011;31071;51.478;5.710;2023-06-22T02:54:42;15.65;;;13.00;;
45338;SDS011;31071;51.478;5.710;2023-06-22T02:57:10;18.50;;;14.73;;
45338;SDS011;31071;51.478;5.710;2023-06-22T02:59:38;18.13;;;14.30;;
45338;SDS011;31071;51.478;5.710;2023-06-22T03:02:05;17.25;;;14.50;;
45338;SDS011;31071;51.478;5.710;2023-06-22T03:04:31;18.20;;;13.30;;
45338;SDS011;31071;51.478;5.710;2023-06-22T03:06:57;15.40;;;13.77;;
45338;SDS011;31071;51.478;5.710;2023-06-22T03:09:26;18.80;;;13.93;;
45338;SDS011;31071;51.478;5.710;2023-06-22T03:11:53;17.30;;;13.32;;
45338;SDS011;31071;51.478;5.710;2023-06-22T03:14:19;17.55;;;13.63;;
45338;SDS011;31071;51.478;5.710;2023-06-22T03:16:44;17.70;;;14.38;;
45338;SDS011;31071;51.478;5.710;2023-06-22T03:19:10;18.40;;;15.07;;
45338;SDS011;31071;51.478;5.710;2023-06-22T03:21:37;16.95;;;13.85;;
45338;SDS011;31071;51.478;5.710;2023-06-22T03:24:06;17.20;;;14.25;;
45338;SDS011;31071;51.478;5.710;2023-06-22T03:26:32;17.40;;;14.20;;
45338;SDS011;31071;51.478;5.710;2023-06-22T03:28:59;15.48;;;13.43;;
45338;SDS011;31071;51.478;5.710;2023-06-22T03:31:24;17.00;;;13.32;;
45338;SDS011;31071;51.478;5.710;2023-06-22T03:33:50;19.50;;;14.18;;
45338;SDS011;31071;51.478;5.710;2023-06-22T03:36:16;16.67;;;13.38;;
45338;SDS011;31071;51.478;5.710;2023-06-22T03:38:49;17.85;;;12.93;;
45338;SDS011;31071;51.478;5.710;2023-06-22T03:41:15;18.13;;;13.70;;
45338;SDS011;31071;51.478;5.710;2023-06-22T03:43:41;18.88;;;13.52;;
45338;SDS011;31071;51.478;5.710;2023-06-22T03:46:07;18.42;;;14.52;;
45338;SDS011;31071;51.478;5.710;2023-06-22T03:48:32;16.33;;;14.60;;
45338;SDS011;31071;51.478;5.710;2023-06-22T03:51:02;17.58;;;14.77;;
45338;SDS011;31071;51.478;5.710;2023-06-22T03:53:28;16.00;;;14.32;;
45338;SDS011;31071;51.478;5.710;2023-06-22T03:55:54;19.13;;;14.90;;
45338;SDS011;31071;51.478;5.710;2023-06-22T03:58:20;20.98;;;14.63;;
45338;SDS011;31071;51.478;5.710;2023-06-22T04:00:50;18.05;;;13.80;;
45338;SDS011;31071;51.478;5.710;2023-06-22T04:03:17;17.30;;;13.15;;
45338;SDS011;31071;51.478;5.710;2023-06-22T04:05:46;17.15;;;13.02;;
45338;SDS011;31071;51.478;5.710;2023-06-22T04:08:13;16.88;;;14.07;;
45338;SDS011;31071;51.478;5.710;2023-06-22T04:10:39;16.00;;;12.50;;
45338;SDS011;31071;51.478;5.710;2023-06-22T04:13:05;17.92;;;13.02;;
45338;SDS011;31071;51.478;5.710;2023-06-22T04:15:31;17.92;;;14.25;;
45338;SDS011;31071;51.478;5.710;2023-06-22T04:17:57;16.27;;;14.13;;
45338;SDS011;31071;51.478;5.710;2023-06-22T04:20:23;21.35;;;12.95;;
45338;SDS011;31071;51.478;5.710;2023-06-22T04:22:51;16.10;;;13.73;;
45338;SDS011;31071;51.478;5.710;2023-06-22T04:25:20;15.65;;;13.15;;
45338;SDS011;31071;51.478;5.710;2023-06-22T04:27:46;17.25;;;13.70;;
45338;SDS011;31071;51.478;5.710;2023-06-22T04:30:12;18.35;;;14.82;;
45338;SDS011;31071;51.478;5.710;2023-06-22T04:32:40;17.58;;;14.75;;
45338;SDS011;31071;51.478;5.710;2023-06-22T04:35:06;17.38;;;14.63;;
45338;SDS011;31071;51.478;5.710;2023-06-22T04:37:32;20.20;;;15.23;;
45338;SDS011;31071;51.478;5.710;2023-06-22T04:39:58;17.90;;;14.07;;
45338;SDS011;31071;51.478;5.710;2023-06-22T04:42:27;16.42;;;14.35;;
45338;SDS011;31071;51.478;5.710;2023-06-22T04:44:53;16.27;;;14.57;;
45338;SDS011;31071;51.478;5.710;2023-06-22T04:47:19;21.15;;;15.98;;
45338;SDS011;31071;51.478;5.710;2023-06-22T04:49:44;17.83;;;14.93;;
45338;SDS011;31071;51.478;5.710;2023-06-22T04:52:11;17.33;;;13.48;;
45338;SDS011;31071;51.478;5.710;2023-06-22T04:54:38;18.10;;;14.15;;
45338;SDS011;31071;51.478;5.710;2023-06-22T04:57:06;21.92;;;16.70;;
45338;SDS011;31071;51.478;5.710;2023-06-22T04:59:35;20.30;;;15.93;;
45338;SDS011;31071;51.478;5.710;2023-06-22T05:02:03;20.35;;;16.48;;
45338;SDS011;31071;51.478;5.710;2023-06-22T05:04:29;24.83;;;18.80;;
45338;SDS011;31071;51.478;5.710;2023-06-22T05:06:58;21.90;;;17.77;;
45338;SDS011;31071;51.478;5.710;2023-06-22T05:09:25;20.60;;;18.40;;
45338;SDS011;31071;51.478;5.710;2023-06-22T05:11:51;20.52;;;16.75;;
45338;SDS011;31071;51.478;5.710;2023-06-22T05:14:16;21.27;;;16.65;;
45338;SDS011;31071;51.478;5.710;2023-06-22T05:16:43;21.42;;;18.17;;
45338;SDS011;31071;51.478;5.710;2023-06-22T05:19:09;22.80;;;18.73;;
45338;SDS011;31071;51.478;5.710;2023-06-22T05:21:36;23.35;;;18.98;;
45338;SDS011;31071;51.478;5.710;2023-06-22T05:24:01;24.05;;;19.20;;
45338;SDS011;31071;51.478;5.710;2023-06-22T05:26:30;21.30;;;18.83;;
45338;SDS011;31071;51.478;5.710;2023-06-22T05:28:57;23.77;;;19.23;;
45338;SDS011;31071;51.478;5.710;2023-06-22T05:31:24;24.85;;;19.13;;
45338;SDS011;31071;51.478;5.710;2023-06-22T05:33:51;27.98;;;20.05;;
45338;SDS011;31071;51.478;5.710;2023-06-22T05:36:17;25.13;;;19.50;;
45338;SDS011;31071;51.478;5.710;2023-06-22T05:38:45;21.52;;;18.60;;
45338;SDS011;31071;51.478;5.710;2023-06-22T05:41:10;21.42;;;18.83;;
45338;SDS011;31071;51.478;5.710;2023-06-22T05:43:36;22.25;;;19.73;;
45338;SDS011;31071;51.478;5.710;2023-06-22T05:46:03;24.58;;;20.73;;
45338;SDS011;31071;51.478;5.710;2023-06-22T05:48:29;24.75;;;20.95;;
45338;SDS011;31071;51.478;5.710;2023-06-22T05:50:55;26.33;;;21.13;;
45338;SDS011;31071;51.478;5.710;2023-06-22T05:53:21;23.15;;;19.23;;
45338;SDS011;31071;51.478;5.710;2023-06-22T05:55:47;26.58;;;20.63;;
45338;SDS011;31071;51.478;5.710;2023-06-22T05:58:13;25.70;;;20.48;;
45338;SDS011;31071;51.478;5.710;2023-06-22T06:00:39;26.58;;;21.50;;
45338;SDS011;31071;51.478;5.710;2023-06-22T06:03:05;27.75;;;22.55;;
45338;SDS011;31071;51.478;5.710;2023-06-22T06:05:32;27.15;;;23.38;;
45338;SDS011;31071;51.478;5.710;2023-06-22T06:08:02;25.98;;;20.55;;
45338;SDS011;31071;51.478;5.710;2023-06-22T06:10:30;34.42;;;23.23;;
45338;SDS011;31071;51.478;5.710;2023-06-22T06:12:56;29.75;;;23.15;;
45338;SDS011;31071;51.478;5.710;2023-06-22T06:15:22;25.25;;;21.95;;
45338;SDS011;31071;51.478;5.710;2023-06-22T06:17:48;29.15;;;22.48;;
45338;SDS011;31071;51.478;5.710;2023-06-22T06:20:15;23.75;;;20.45;;
45338;SDS011;31071;51.478;5.710;2023-06-22T06:22:45;27.98;;;21.83;;
45338;SDS011;31071;51.478;5.710;2023-06-22T06:25:11;24.98;;;19.98;;
45338;SDS011;31071;51.478;5.710;2023-06-22T06:27:41;22.40;;;19.60;;
45338;SDS011;31071;51.478;5.710;2023-06-22T06:30:10;23.02;;;19.48;;
45338;SDS011;31071;51.478;5.710;2023-06-22T06:32:37;26.42;;;19.92;;
45338;SDS011;31071;51.478;5.710;2023-06-22T06:35:04;22.98;;;19.55;;
45338;SDS011;31071;51.478;5.710;2023-06-22T06:37:35;23.15;;;20.20;;
45338;SDS011;31071;51.478;5.710;2023-06-22T06:40:12;21.52;;;19.15;;
45338;SDS011;31071;51.478;5.710;2023-06-22T06:42:43;27.23;;;20.08;;
45338;SDS011;31071;51.478;5.710;2023-06-22T06:47:43;26.75;;;21.67;;
45338;SDS011;31071;51.478;5.710;2023-06-22T06:50:09;25.02;;;21.10;;
45338;SDS011;31071;51.478;5.710;2023-06-22T06:52:35;26.55;;;20.92;;
45338;SDS011;31071;51.478;5.710;2023-06-22T06:55:01;25.13;;;21.30;;
45338;SDS011;31071;51.478;5.710;2023-06-22T06:57:30;26.30;;;21.25;;
45338;SDS011;31071;51.478;5.710;2023-06-22T06:59:56;24.38;;;21.73;;
45338;SDS011;31071;51.478;5.710;2023-06-22T07:02:22;26.02;;;21.65;;
45338;SDS011;31071;51.478;5.710;2023-06-22T07:04:48;25.25;;;21.70;;
45338;SDS011;31071;51.478;5.710;2023-06-22T07:07:14;22.42;;;19.52;;
45338;SDS011;31071;51.478;5.710;2023-06-22T07:09:42;26.00;;;21.92;;
45338;SDS011;31071;51.478;5.710;2023-06-22T07:12:08;24.73;;;21.05;;
45338;SDS011;31071;51.478;5.710;2023-06-22T07:14:34;27.13;;;21.88;;
45338;SDS011;31071;51.478;5.710;2023-06-22T07:16:59;26.75;;;21.20;;
45338;SDS011;31071;51.478;5.710;2023-06-22T07:19:25;24.85;;;20.77;;
45338;SDS011;31071;51.478;5.710;2023-06-22T07:21:54;29.60;;;20.50;;
45338;SDS011;31071;51.478;5.710;2023-06-22T07:24:20;27.90;;;20.95;;
45338;SDS011;31071;51.478;5.710;2023-06-22T07:26:47;28.15;;;21.38;;
45338;SDS011;31071;51.478;5.710;2023-06-22T07:29:15;23.05;;;20.63;;
45338;SDS011;31071;51.478;5.710;2023-06-22T07:31:41;27.05;;;22.33;;
45338;SDS011;31071;51.478;5.710;2023-06-22T07:34:07;31.77;;;23.33;;
45338;SDS011;31071;51.478;5.710;2023-06-22T07:36:32;26.10;;;21.52;;
45338;SDS011;31071;51.478;5.710;2023-06-22T07:39:00;30.17;;;21.33;;
45338;SDS011;31071;51.478;5.710;2023-06-22T07:41:27;29.45;;;22.60;;
45338;SDS011;31071;51.478;5.710;2023-06-22T07:43:53;28.83;;;20.58;;
45338;SDS011;31071;51.478;5.710;2023-06-22T07:46:18;28.70;;;22.05;;
45338;SDS011;31071;51.478;5.710;2023-06-22T07:48:44;29.02;;;22.38;;
45338;SDS011;31071;51.478;5.710;2023-06-22T07:51:10;28.73;;;23.42;;
45338;SDS011;31071;51.478;5.710;2023-06-22T07:53:39;26.52;;;21.65;;
45338;SDS011;31071;51.478;5.710;2023-06-22T07:56:06;27.13;;;22.50;;
45338;SDS011;31071;51.478;5.710;2023-06-22T07:58:34;23.80;;;21.10;;
45338;SDS011;31071;51.478;5.710;2023-06-22T08:00:59;26.80;;;22.60;;
45338;SDS011;31071;51.478;5.710;2023-06-22T08:03:25;28.83;;;22.25;;
45338;SDS011;31071;51.478;5.710;2023-06-22T08:05:50;26.08;;;23.27;;
45338;SDS011;31071;51.478;5.710;2023-06-22T08:08:16;26.13;;;21.58;;
45338;SDS011;31071;51.478;5.710;2023-06-22T08:10:42;25.92;;;22.13;;
45338;SDS011;31071;51.478;5.710;2023-06-22T08:13:08;26.52;;;22.08;;
45338;SDS011;31071;51.478;5.710;2023-06-22T08:15:33;29.67;;;23.17;;
45338;SDS011;31071;51.478;5.710;2023-06-22T08:17:59;29.50;;;24.23;;
45338;SDS011;31071;51.478;5.710;2023-06-22T08:20:25;24.65;;;22.00;;
45338;SDS011;31071;51.478;5.710;2023-06-22T08:22:52;25.80;;;22.00;;
45338;SDS011;31071;51.478;5.710;2023-06-22T08:25:19;24.58;;;21.45;;
45338;SDS011;31071;51.478;5.710;2023-06-22T08:27:45;25.85;;;20.95;;
45338;SDS011;31071;51.478;5.710;2023-06-22T08:30:12;28.45;;;22.45;;
45338;SDS011;31071;51.478;5.710;2023-06-22T08:32:38;30.60;;;23.00;;
45338;SDS011;31071;51.478;5.710;2023-06-22T08:35:04;27.90;;;22.13;;
45338;SDS011;31071;51.478;5.710;2023-06-22T08:37:33;29.80;;;23.55;;
45338;SDS011;31071;51.478;5.710;2023-06-22T08:40:00;29.35;;;24.00;;
45338;SDS011;31071;51.478;5.710;2023-06-22T08:42:29;29.08;;;23.55;;
45338;SDS011;31071;51.478;5.710;2023-06-22T08:44:55;31.90;;;24.40;;
45338;SDS011;31071;51.478;5.710;2023-06-22T08:47:20;31.33;;;25.58;;
45338;SDS011;31071;51.478;5.710;2023-06-22T08:49:47;31.15;;;25.80;;
45338;SDS011;31071;51.478;5.710;2023-06-22T08:52:13;29.38;;;25.52;;
45338;SDS011;31071;51.478;5.710;2023-06-22T08:54:39;26.95;;;24.08;;
45338;SDS011;31071;51.478;5.710;2023-06-22T08:57:05;32.20;;;24.83;;
45338;SDS011;31071;51.478;5.710;2023-06-22T08:59:31;28.67;;;24.08;;
45338;SDS011;31071;51.478;5.710;2023-06-22T09:01:57;28.90;;;24.52;;
45338;SDS011;31071;51.478;5.710;2023-06-22T09:04:24;27.30;;;23.15;;
45338;SDS011;31071;51.478;5.710;2023-06-22T09:06:49;26.88;;;22.08;;
45338;SDS011;31071;51.478;5.710;2023-06-22T09:09:17;29.52;;;23.52;;
45338;SDS011;31071;51.478;5.710;2023-06-22T09:11:43;23.90;;;21.35;;
45338;SDS011;31071;51.478;5.710;2023-06-22T09:14:09;29.13;;;23.17;;
45338;SDS011;31071;51.478;5.710;2023-06-22T09:16:35;26.70;;;23.80;;
45338;SDS011;31071;51.478;5.710;2023-06-22T09:19:01;26.75;;;22.83;;
45338;SDS011;31071;51.478;5.710;2023-06-22T09:21:26;25.38;;;22.33;;
45338;SDS011;31071;51.478;5.710;2023-06-22T09:23:52;26.13;;;23.33;;
45338;SDS011;31071;51.478;5.710;2023-06-22T09:26:18;27.27;;;23.58;;
45338;SDS011;31071;51.478;5.710;2023-06-22T09:28:44;29.83;;;23.42;;
45338;SDS011;31071;51.478;5.710;2023-06-22T09:31:11;29.42;;;24.08;;
45338;SDS011;31071;51.478;5.710;2023-06-22T09:33:37;29.67;;;23.70;;
45338;SDS011;31071;51.478;5.710;2023-06-22T09:36:05;27.40;;;23.63;;
45338;SDS011;31071;51.478;5.710;2023-06-22T09:38:41;27.70;;;22.75;;
45338;SDS011;31071;51.478;5.710;2023-06-22T09:41:07;26.50;;;23.40;;
45338;SDS011;31071;51.478;5.710;2023-06-22T09:43:32;28.58;;;24.77;;
45338;SDS011;31071;51.478;5.710;2023-06-22T09:46:01;31.42;;;23.08;;
45338;SDS011;31071;51.478;5.710;2023-06-22T09:48:28;25.35;;;21.42;;
45338;SDS011;31071;51.478;5.710;2023-06-22T09:50:55;25.15;;;22.58;;
45338;SDS011;31071;51.478;5.710;2023-06-22T09:53:21;29.15;;;23.13;;
45338;SDS011;31071;51.478;5.710;2023-06-22T09:55:46;28.55;;;22.83;;
45338;SDS011;31071;51.478;5.710;2023-06-22T09:58:12;25.48;;;22.30;;
45338;SDS011;31071;51.478;5.710;2023-06-22T10:00:37;27.35;;;23.10;;
45338;SDS011;31071;51.478;5.710;2023-06-22T10:03:03;25.83;;;21.58;;
45338;SDS011;31071;51.478;5.710;2023-06-22T10:05:29;24.15;;;21.58;;
45338;SDS011;31071;51.478;5.710;2023-06-22T10:07:54;24.65;;;21.92;;
45338;SDS011;31071;51.478;5.710;2023-06-22T10:10:20;25.15;;;21.67;;
45338;SDS011;31071;51.478;5.710;2023-06-22T10:12:46;29.50;;;22.05;;
45338;SDS011;31071;51.478;5.710;2023-06-22T10:15:13;29.75;;;21.73;;
45338;SDS011;31071;51.478;5.710;2023-06-22T10:17:39;28.58;;;22.08;;
45338;SDS011;31071;51.478;5.710;2023-06-22T10:20:06;27.60;;;21.25;;
45338;SDS011;31071;51.478;5.710;2023-06-22T10:22:38;27.88;;;22.38;;
45338;SDS011;31071;51.478;5.710;2023-06-22T10:25:04;22.10;;;19.80;;
45338;SDS011;31071;51.478;5.710;2023-06-22T10:27:30;23.80;;;19.52;;
45338;SDS011;31071;51.478;5.710;2023-06-22T10:29:56;21.45;;;19.20;;
45338;SDS011;31071;51.478;5.710;2023-06-22T10:32:22;20.52;;;18.40;;
45338;SDS011;31071;51.478;5.710;2023-06-22T10:34:47;22.90;;;17.75;;
45338;SDS011;31071;51.478;5.710;2023-06-22T10:37:15;20.90;;;18.10;;
45338;SDS011;31071;51.478;5.710;2023-06-22T10:39:41;21.42;;;19.20;;
45338;SDS011;31071;51.478;5.710;2023-06-22T10:42:12;20.30;;;18.10;;
45338;SDS011;31071;51.478;5.710;2023-06-22T10:44:39;24.55;;;19.92;;
45338;SDS011;31071;51.478;5.710;2023-06-22T10:47:06;25.45;;;22.77;;
45338;SDS011;31071;51.478;5.710;2023-06-22T10:49:32;28.17;;;24.15;;
45338;SDS011;31071;51.478;5.710;2023-06-22T10:51:57;29.63;;;26.20;;
45338;SDS011;31071;51.478;5.710;2023-06-22T10:54:23;32.17;;;26.13;;
45338;SDS011;31071;51.478;5.710;2023-06-22T10:56:48;37.95;;;28.65;;
45338;SDS011;31071;51.478;5.710;2023-06-22T10:59:14;31.88;;;27.27;;
45338;SDS011;31071;51.478;5.710;2023-06-22T11:01:39;31.77;;;28.25;;
45338;SDS011;31071;51.478;5.710;2023-06-22T11:04:05;36.38;;;30.05;;
45338;SDS011;31071;51.478;5.710;2023-06-22T11:06:31;47.22;;;33.85;;
45338;SDS011;31071;51.478;5.710;2023-06-22T11:08:56;39.67;;;31.77;;
45338;SDS011;31071;51.478;5.710;2023-06-22T11:11:23;45.70;;;34.65;;
45338;SDS011;31071;51.478;5.710;2023-06-22T11:13:50;47.92;;;35.25;;
45338;SDS011;31071;51.478;5.710;2023-06-22T11:16:17;52.58;;;37.72;;
45338;SDS011;31071;51.478;5.710;2023-06-22T11:28:52;43.35;;;38.63;;
45338;SDS011;31071;51.478;5.710;2023-06-22T11:31:35;57.90;;;40.33;;
45338;SDS011;31071;51.478;5.710;2023-06-22T11:34:18;56.17;;;45.42;;
45338;SDS011;31071;51.478;5.710;2023-06-22T11:36:44;53.13;;;44.25;;
45338;SDS011;31071;51.478;5.710;2023-06-22T11:39:10;59.75;;;44.28;;
45338;SDS011;31071;51.478;5.710;2023-06-22T11:41:36;49.08;;;42.05;;
45338;SDS011;31071;51.478;5.710;2023-06-22T11:44:02;62.00;;;45.42;;
45338;SDS011;31071;51.478;5.710;2023-06-22T11:46:29;53.97;;;46.58;;
45338;SDS011;31071;51.478;5.710;2023-06-22T11:48:55;52.78;;;45.42;;
45338;SDS011;31071;51.478;5.710;2023-06-22T11:51:21;59.47;;;45.38;;
45338;SDS011;31071;51.478;5.710;2023-06-22T11:53:46;53.33;;;45.47;;
45338;SDS011;31071;51.478;5.710;2023-06-22T11:56:12;52.80;;;45.05;;
45338;SDS011;31071;51.478;5.710;2023-06-22T11:58:37;53.90;;;47.95;;
45338;SDS011;31071;51.478;5.710;2023-06-22T12:01:03;53.55;;;46.97;;
45338;SDS011;31071;51.478;5.710;2023-06-22T12:03:29;50.72;;;45.17;;
45338;SDS011;31071;51.478;5.710;2023-06-22T12:05:55;51.28;;;45.50;;
45338;SDS011;31071;51.478;5.710;2023-06-22T12:08:21;50.70;;;45.30;;
45338;SDS011;31071;51.478;5.710;2023-06-22T12:10:46;51.97;;;46.30;;
45338;SDS011;31071;51.478;5.710;2023-06-22T12:13:12;53.38;;;45.97;;
45338;SDS011;31071;51.478;5.710;2023-06-22T12:15:38;55.17;;;46.92;;
45338;SDS011;31071;51.478;5.710;2023-06-22T12:18:03;51.28;;;45.63;;
45338;SDS011;31071;51.478;5.710;2023-06-22T12:20:29;57.90;;;47.63;;
45338;SDS011;31071;51.478;5.710;2023-06-22T12:22:55;52.67;;;46.55;;
45338;SDS011;31071;51.478;5.710;2023-06-22T12:25:23;51.83;;;46.22;;
45338;SDS011;31071;51.478;5.710;2023-06-22T12:27:48;52.95;;;46.13;;
45338;SDS011;31071;51.478;5.710;2023-06-22T12:30:15;50.97;;;44.05;;
45338;SDS011;31071;51.478;5.710;2023-06-22T12:32:41;50.88;;;45.45;;
45338;SDS011;31071;51.478;5.710;2023-06-22T12:35:07;49.45;;;43.85;;
45338;SDS011;31071;51.478;5.710;2023-06-22T12:37:38;49.67;;;43.78;;
45338;SDS011;31071;51.478;5.710;2023-06-22T12:40:04;51.08;;;45.53;;
45338;SDS011;31071;51.478;5.710;2023-06-22T12:42:30;52.15;;;46.53;;
45338;SDS011;31071;51.478;5.710;2023-06-22T12:44:56;53.08;;;47.28;;
45338;SDS011;31071;51.478;5.710;2023-06-22T12:47:21;53.67;;;47.80;;
45338;SDS011;31071;51.478;5.710;2023-06-22T12:49:47;53.03;;;47.33;;
45338;SDS011;31071;51.478;5.710;2023-06-22T12:52:12;50.05;;;44.60;;
45338;SDS011;31071;51.478;5.710;2023-06-22T12:54:38;49.85;;;44.65;;
45338;SDS011;31071;51.478;5.710;2023-06-22T12:57:03;48.47;;;43.35;;
45338;SDS011;31071;51.478;5.710;2023-06-22T12:59:29;49.15;;;44.03;;
45338;SDS011;31071;51.478;5.710;2023-06-22T13:01:55;44.90;;;40.25;;
45338;SDS011;31071;51.478;5.710;2023-06-22T13:04:20;46.00;;;41.33;;
45338;SDS011;31071;51.478;5.710;2023-06-22T13:06:46;44.58;;;40.10;;
45338;SDS011;31071;51.478;5.710;2023-06-22T13:09:13;46.50;;;41.75;;
45338;SDS011;31071;51.478;5.710;2023-06-22T13:11:39;43.53;;;39.15;;
45338;SDS011;31071;51.478;5.710;2023-06-22T13:14:05;43.10;;;38.80;;
45338;SDS011;31071;51.478;5.710;2023-06-22T13:16:31;45.65;;;40.70;;
45338;SDS011;31071;51.478;5.710;2023-06-22T13:18:56;45.05;;;40.33;;
45338;SDS011;31071;51.478;5.710;2023-06-22T13:21:24;45.25;;;40.88;;
45338;SDS011;31071;51.478;5.710;2023-06-22T13:23:50;48.75;;;43.83;;
45338;SDS011;31071;51.478;5.710;2023-06-22T13:26:16;48.63;;;43.75;;
45338;SDS011;31071;51.478;5.710;2023-06-22T13:28:42;47.90;;;42.75;;
45338;SDS011;31071;51.478;5.710;2023-06-22T13:31:07;48.63;;;43.47;;
45338;SDS011;31071;51.478;5.710;2023-06-22T13:33:32;45.90;;;41.22;;
45338;SDS011;31071;51.478;5.710;2023-06-22T13:35:58;48.40;;;43.58;;
45338;SDS011;31071;51.478;5.710;2023-06-22T13:38:24;48.17;;;43.55;;
45338;SDS011;31071;51.478;5.710;2023-06-22T13:40:49;47.13;;;42.22;;
45338;SDS011;31071;51.478;5.710;2023-06-22T13:43:15;47.03;;;42.45;;
45338;SDS011;31071;51.478;5.710;2023-06-22T13:45:41;48.92;;;44.17;;
45338;SDS011;31071;51.478;5.710;2023-06-22T13:48:07;50.85;;;45.55;;
45338;SDS011;31071;51.478;5.710;2023-06-22T13:50:33;50.50;;;45.53;;
45338;SDS011;31071;51.478;5.710;2023-06-22T13:52:58;48.22;;;43.35;;
45338;SDS011;31071;51.478;5.710;2023-06-22T13:55:24;50.83;;;45.83;;
45338;SDS011;31071;51.478;5.710;2023-06-22T13:57:49;50.28;;;44.95;;
45338;SDS011;31071;51.478;5.710;2023-06-22T14:00:16;50.35;;;45.20;;
45338;SDS011;31071;51.478;5.710;2023-06-22T14:02:42;52.17;;;46.78;;
45338;SDS011;31071;51.478;5.710;2023-06-22T14:05:08;53.35;;;47.90;;
45338;SDS011;31071;51.478;5.710;2023-06-22T14:07:34;55.42;;;49.58;;
45338;SDS011;31071;51.478;5.710;2023-06-22T14:10:00;54.53;;;48.92;;
45338;SDS011;31071;51.478;5.710;2023-06-22T14:12:29;55.33;;;49.33;;
45338;SDS011;31071;51.478;5.710;2023-06-22T14:14:58;53.47;;;47.83;;
45338;SDS011;31071;51.478;5.710;2023-06-22T14:17:23;51.95;;;46.67;;
45338;SDS011;31071;51.478;5.710;2023-06-22T14:19:51;52.25;;;46.92;;
45338;SDS011;31071;51.478;5.710;2023-06-22T14:22:20;50.67;;;45.40;;
45338;SDS011;31071;51.478;5.710;2023-06-22T14:24:47;54.38;;;48.70;;
45338;SDS011;31071;51.478;5.710;2023-06-22T14:27:59;52.17;;;46.92;;
45338;SDS011;31071;51.478;5.710;2023-06-22T14:30:02;56.42;;;50.65;;
45338;SDS011;31071;51.478;5.710;2023-06-22T14:32:28;56.00;;;50.22;;
45338;SDS011;31071;51.478;5.710;2023-06-22T14:34:55;53.67;;;48.25;;
45338;SDS011;31071;51.478;5.710;2023-06-22T14:37:20;52.65;;;47.08;;